sensor_id;sensor_type;location;lat;lon;timestamp;P1;durP1;ratioP1;P2;durP2;ratioP2
72547;SDS011;60570;50.848;6.776;2024-03-08T00:00:19;1027.13;;;945.73;;
72547;SDS011;60570;50.848;6.776;2024-03-08T00:01:21;1028.90;;;947.10;;
72547;SDS011;60570;50.848;6.776;2024-03-08T00:02:21;1032.00;;;950.03;;
72547;SDS011;60570;50.848;6.776;2024-03-08T00:03:22;1024.93;;;943.23;;
72547;SDS011;60570;50.848;6.776;2024-03-08T00:04:24;1030.50;;;948.37;;
72547;SDS011;60570;50.848;6.776;2024-03-08T00:05:25;1031.27;;;949.13;;
72547;SDS011;60570;50.848;6.776;2024-03-08T00:06:28;1029.57;;;947.73;;
72547;SDS011;60570;50.848;6.776;2024-03-08T00:08:29;1020.67;;;940.70;;
72547;SDS011;60570;50.848;6.776;2024-03-08T00:09:31;1020.40;;;939.93;;
72547;SDS011;60570;50.848;6.776;2024-03-08T00:10:32;1025.50;;;944.30;;
72547;SDS011;60570;50.848;6.776;2024-03-08T00:11:34;1030.27;;;948.70;;
72547;SDS011;60570;50.848;6.776;2024-03-08T00:12:35;1024.07;;;942.73;;
72547;SDS011;60570;50.848;6.776;2024-03-08T00:13:35;1034.30;;;953.00;;
72547;SDS011;60570;50.848;6.776;2024-03-08T00:15:39;1016.00;;;936.77;;
72547;SDS011;60570;50.848;6.776;2024-03-08T00:16:41;1020.93;;;940.83;;
72547;SDS011;60570;50.848;6.776;2024-03-08T00:17:44;1021.67;;;940.80;;
72547;SDS011;60570;50.848;6.776;2024-03-08T00:18:46;1021.23;;;940.33;;
72547;SDS011;60570;50.848;6.776;2024-03-08T00:19:47;1023.03;;;941.80;;
72547;SDS011;60570;50.848;6.776;2024-03-08T00:20:52;1024.90;;;943.60;;
72547;SDS011;60570;50.848;6.776;2024-03-08T00:21:54;1027.20;;;945.60;;
72547;SDS011;60570;50.848;6.776;2024-03-08T00:22:56;1028.47;;;946.60;;
72547;SDS011;60570;50.848;6.776;2024-03-08T00:23:58;1036.93;;;955.07;;
72547;SDS011;60570;50.848;6.776;2024-03-08T00:24:59;1026.03;;;944.17;;
72547;SDS011;60570;50.848;6.776;2024-03-08T00:26:00;1026.17;;;944.23;;
72547;SDS011;60570;50.848;6.776;2024-03-08T00:27:04;1024.37;;;943.27;;
72547;SDS011;60570;50.848;6.776;2024-03-08T00:28:06;1026.33;;;944.57;;
72547;SDS011;60570;50.848;6.776;2024-03-08T00:29:07;1032.40;;;950.00;;
72547;SDS011;60570;50.848;6.776;2024-03-08T00:30:08;1031.53;;;949.13;;
72547;SDS011;60570;50.848;6.776;2024-03-08T00:31:11;1031.83;;;949.97;;
72547;SDS011;60570;50.848;6.776;2024-03-08T00:32:11;1031.30;;;949.40;;
72547;SDS011;60570;50.848;6.776;2024-03-08T00:33:13;1029.07;;;948.10;;
72547;SDS011;60570;50.848;6.776;2024-03-08T00:34:14;1026.73;;;944.73;;
72547;SDS011;60570;50.848;6.776;2024-03-08T00:35:15;1026.77;;;944.93;;
72547;SDS011;60570;50.848;6.776;2024-03-08T00:36:16;1026.00;;;944.33;;
72547;SDS011;60570;50.848;6.776;2024-03-08T00:37:18;1027.83;;;946.00;;
72547;SDS011;60570;50.848;6.776;2024-03-08T00:38:20;1030.17;;;949.07;;
72547;SDS011;60570;50.848;6.776;2024-03-08T00:39:21;1029.37;;;947.40;;
72547;SDS011;60570;50.848;6.776;2024-03-08T00:40:23;1021.50;;;940.27;;
72547;SDS011;60570;50.848;6.776;2024-03-08T00:41:23;1030.43;;;948.27;;
72547;SDS011;60570;50.848;6.776;2024-03-08T00:42:26;1029.60;;;947.63;;
72547;SDS011;60570;50.848;6.776;2024-03-08T00:43:27;1027.10;;;945.43;;
72547;SDS011;60570;50.848;6.776;2024-03-08T00:44:30;1026.00;;;944.27;;
72547;SDS011;60570;50.848;6.776;2024-03-08T00:45:31;1028.90;;;946.87;;
72547;SDS011;60570;50.848;6.776;2024-03-08T00:46:34;1023.80;;;942.00;;
72547;SDS011;60570;50.848;6.776;2024-03-08T00:47:35;1028.73;;;947.03;;
72547;SDS011;60570;50.848;6.776;2024-03-08T00:48:37;1026.70;;;944.93;;
72547;SDS011;60570;50.848;6.776;2024-03-08T00:49:38;1030.37;;;948.17;;
72547;SDS011;60570;50.848;6.776;2024-03-08T00:50:39;1026.80;;;945.13;;
72547;SDS011;60570;50.848;6.776;2024-03-08T00:51:40;1032.07;;;949.93;;
72547;SDS011;60570;50.848;6.776;2024-03-08T00:52:43;1031.67;;;949.23;;
72547;SDS011;60570;50.848;6.776;2024-03-08T00:53:44;1030.97;;;949.30;;
72547;SDS011;60570;50.848;6.776;2024-03-08T00:54:45;1026.33;;;944.87;;
72547;SDS011;60570;50.848;6.776;2024-03-08T00:55:46;1028.47;;;946.67;;
72547;SDS011;60570;50.848;6.776;2024-03-08T00:56:48;1030.50;;;948.37;;
72547;SDS011;60570;50.848;6.776;2024-03-08T00:57:49;1028.97;;;947.27;;
72547;SDS011;60570;50.848;6.776;2024-03-08T00:58:50;1033.53;;;951.47;;
72547;SDS011;60570;50.848;6.776;2024-03-08T00:59:51;1034.07;;;952.73;;
72547;SDS011;60570;50.848;6.776;2024-03-08T01:00:52;1028.97;;;947.43;;
72547;SDS011;60570;50.848;6.776;2024-03-08T01:01:54;1028.97;;;947.13;;
72547;SDS011;60570;50.848;6.776;2024-03-08T01:02:55;1036.53;;;954.80;;
72547;SDS011;60570;50.848;6.776;2024-03-08T01:03:57;1029.10;;;947.23;;
72547;SDS011;60570;50.848;6.776;2024-03-08T01:04:58;1029.47;;;947.90;;
72547;SDS011;60570;50.848;6.776;2024-03-08T01:06:00;1031.53;;;949.70;;
72547;SDS011;60570;50.848;6.776;2024-03-08T01:07:01;1031.77;;;949.83;;
72547;SDS011;60570;50.848;6.776;2024-03-08T01:08:04;1026.97;;;945.47;;
72547;SDS011;60570;50.848;6.776;2024-03-08T01:09:05;1027.23;;;945.70;;
72547;SDS011;60570;50.848;6.776;2024-03-08T01:10:09;1029.57;;;948.83;;
72547;SDS011;60570;50.848;6.776;2024-03-08T01:11:12;1023.07;;;941.47;;
72547;SDS011;60570;50.848;6.776;2024-03-08T01:12:14;1024.40;;;943.03;;
72547;SDS011;60570;50.848;6.776;2024-03-08T01:13:15;1025.30;;;943.67;;
72547;SDS011;60570;50.848;6.776;2024-03-08T01:14:16;1026.00;;;944.43;;
72547;SDS011;60570;50.848;6.776;2024-03-08T01:15:17;1029.97;;;947.83;;
72547;SDS011;60570;50.848;6.776;2024-03-08T01:16:19;1027.47;;;945.73;;
72547;SDS011;60570;50.848;6.776;2024-03-08T01:17:21;1031.70;;;949.70;;
72547;SDS011;60570;50.848;6.776;2024-03-08T01:18:23;1029.50;;;947.40;;
72547;SDS011;60570;50.848;6.776;2024-03-08T01:19:23;1031.20;;;949.17;;
72547;SDS011;60570;50.848;6.776;2024-03-08T01:20:25;1025.77;;;944.20;;
72547;SDS011;60570;50.848;6.776;2024-03-08T01:21:26;1033.97;;;951.80;;
72547;SDS011;60570;50.848;6.776;2024-03-08T01:22:27;1025.17;;;943.67;;
72547;SDS011;60570;50.848;6.776;2024-03-08T01:23:31;1022.57;;;941.43;;
72547;SDS011;60570;50.848;6.776;2024-03-08T01:24:33;1025.57;;;944.10;;
72547;SDS011;60570;50.848;6.776;2024-03-08T01:25:35;1022.40;;;941.40;;
72547;SDS011;60570;50.848;6.776;2024-03-08T01:26:35;1024.90;;;943.13;;
72547;SDS011;60570;50.848;6.776;2024-03-08T01:27:37;1026.03;;;944.80;;
72547;SDS011;60570;50.848;6.776;2024-03-08T01:28:38;1023.60;;;942.30;;
72547;SDS011;60570;50.848;6.776;2024-03-08T01:29:38;1026.03;;;944.77;;
72547;SDS011;60570;50.848;6.776;2024-03-08T01:30:40;1025.83;;;944.50;;
72547;SDS011;60570;50.848;6.776;2024-03-08T01:31:42;1025.00;;;943.60;;
72547;SDS011;60570;50.848;6.776;2024-03-08T01:32:44;1024.43;;;943.27;;
72547;SDS011;60570;50.848;6.776;2024-03-08T01:33:45;1025.80;;;944.57;;
72547;SDS011;60570;50.848;6.776;2024-03-08T01:34:46;1022.03;;;940.70;;
72547;SDS011;60570;50.848;6.776;2024-03-08T01:35:47;1023.70;;;942.37;;
72547;SDS011;60570;50.848;6.776;2024-03-08T01:36:49;1022.03;;;940.93;;
72547;SDS011;60570;50.848;6.776;2024-03-08T01:37:50;1025.43;;;943.83;;
72547;SDS011;60570;50.848;6.776;2024-03-08T01:38:53;1025.67;;;944.57;;
72547;SDS011;60570;50.848;6.776;2024-03-08T01:40:55;1020.33;;;940.87;;
72547;SDS011;60570;50.848;6.776;2024-03-08T01:41:56;1020.70;;;940.67;;
72547;SDS011;60570;50.848;6.776;2024-03-08T01:42:57;1023.27;;;942.80;;
72547;SDS011;60570;50.848;6.776;2024-03-08T01:44:16;1018.27;;;938.13;;
72547;SDS011;60570;50.848;6.776;2024-03-08T01:45:18;1022.23;;;942.70;;
72547;SDS011;60570;50.848;6.776;2024-03-08T01:46:19;1024.07;;;943.37;;
72547;SDS011;60570;50.848;6.776;2024-03-08T01:47:23;1024.37;;;943.50;;
72547;SDS011;60570;50.848;6.776;2024-03-08T01:48:23;1023.83;;;942.60;;
72547;SDS011;60570;50.848;6.776;2024-03-08T01:49:26;1020.97;;;940.43;;
72547;SDS011;60570;50.848;6.776;2024-03-08T01:50:27;1027.20;;;946.00;;
72547;SDS011;60570;50.848;6.776;2024-03-08T01:51:29;1030.73;;;949.23;;
72547;SDS011;60570;50.848;6.776;2024-03-08T01:52:31;1022.50;;;941.57;;
72547;SDS011;60570;50.848;6.776;2024-03-08T01:53:33;1022.67;;;941.83;;
72547;SDS011;60570;50.848;6.776;2024-03-08T01:54:36;1023.60;;;942.63;;
72547;SDS011;60570;50.848;6.776;2024-03-08T01:55:40;1023.90;;;943.03;;
72547;SDS011;60570;50.848;6.776;2024-03-08T01:56:42;1022.27;;;941.37;;
72547;SDS011;60570;50.848;6.776;2024-03-08T01:57:44;1018.97;;;938.27;;
72547;SDS011;60570;50.848;6.776;2024-03-08T01:58:45;1028.20;;;946.47;;
72547;SDS011;60570;50.848;6.776;2024-03-08T01:59:47;1026.50;;;945.40;;
72547;SDS011;60570;50.848;6.776;2024-03-08T02:00:51;1024.23;;;942.83;;
72547;SDS011;60570;50.848;6.776;2024-03-08T02:01:54;1023.03;;;942.27;;
72547;SDS011;60570;50.848;6.776;2024-03-08T02:02:59;1028.97;;;947.53;;
72547;SDS011;60570;50.848;6.776;2024-03-08T02:04:01;1022.37;;;941.53;;
72547;SDS011;60570;50.848;6.776;2024-03-08T02:05:02;1020.27;;;939.37;;
72547;SDS011;60570;50.848;6.776;2024-03-08T02:06:04;1027.53;;;946.00;;
72547;SDS011;60570;50.848;6.776;2024-03-08T02:07:08;1024.87;;;943.87;;
72547;SDS011;60570;50.848;6.776;2024-03-08T02:08:10;1022.10;;;941.20;;
72547;SDS011;60570;50.848;6.776;2024-03-08T02:09:14;1019.83;;;938.93;;
72547;SDS011;60570;50.848;6.776;2024-03-08T02:10:19;1022.27;;;941.43;;
72547;SDS011;60570;50.848;6.776;2024-03-08T02:11:19;1026.07;;;945.03;;
72547;SDS011;60570;50.848;6.776;2024-03-08T02:12:21;1024.23;;;943.07;;
72547;SDS011;60570;50.848;6.776;2024-03-08T02:13:22;1022.13;;;941.33;;
72547;SDS011;60570;50.848;6.776;2024-03-08T02:14:24;1021.33;;;940.43;;
72547;SDS011;60570;50.848;6.776;2024-03-08T02:15:25;1020.17;;;939.57;;
72547;SDS011;60570;50.848;6.776;2024-03-08T02:16:26;1023.97;;;942.97;;
72547;SDS011;60570;50.848;6.776;2024-03-08T02:17:27;1024.60;;;943.43;;
72547;SDS011;60570;50.848;6.776;2024-03-08T02:18:30;1022.47;;;941.57;;
72547;SDS011;60570;50.848;6.776;2024-03-08T02:19:32;1022.87;;;942.33;;
72547;SDS011;60570;50.848;6.776;2024-03-08T02:20:38;1022.40;;;941.50;;
72547;SDS011;60570;50.848;6.776;2024-03-08T02:21:38;1022.20;;;941.57;;
72547;SDS011;60570;50.848;6.776;2024-03-08T02:22:40;1027.37;;;946.37;;
72547;SDS011;60570;50.848;6.776;2024-03-08T02:23:41;1020.73;;;940.23;;
72547;SDS011;60570;50.848;6.776;2024-03-08T02:24:41;1020.50;;;939.90;;
72547;SDS011;60570;50.848;6.776;2024-03-08T02:25:43;1023.60;;;944.00;;
72547;SDS011;60570;50.848;6.776;2024-03-08T02:26:44;1021.40;;;940.53;;
72547;SDS011;60570;50.848;6.776;2024-03-08T02:27:46;1023.13;;;942.53;;
72547;SDS011;60570;50.848;6.776;2024-03-08T02:28:46;1023.67;;;942.90;;
72547;SDS011;60570;50.848;6.776;2024-03-08T02:29:49;1024.07;;;943.37;;
72547;SDS011;60570;50.848;6.776;2024-03-08T02:30:51;1024.53;;;943.80;;
72547;SDS011;60570;50.848;6.776;2024-03-08T02:31:54;1019.97;;;939.47;;
72547;SDS011;60570;50.848;6.776;2024-03-08T02:32:57;1021.00;;;940.20;;
72547;SDS011;60570;50.848;6.776;2024-03-08T02:33:59;1026.60;;;946.43;;
72547;SDS011;60570;50.848;6.776;2024-03-08T02:34:59;1024.93;;;944.10;;
72547;SDS011;60570;50.848;6.776;2024-03-08T02:36:03;1026.27;;;946.03;;
72547;SDS011;60570;50.848;6.776;2024-03-08T02:37:04;1022.33;;;941.80;;
72547;SDS011;60570;50.848;6.776;2024-03-08T02:38:06;1023.93;;;942.60;;
72547;SDS011;60570;50.848;6.776;2024-03-08T02:39:07;1027.50;;;946.30;;
72547;SDS011;60570;50.848;6.776;2024-03-08T02:40:11;1027.10;;;946.07;;
72547;SDS011;60570;50.848;6.776;2024-03-08T02:41:12;1021.00;;;940.43;;
72547;SDS011;60570;50.848;6.776;2024-03-08T02:42:13;1024.73;;;943.73;;
72547;SDS011;60570;50.848;6.776;2024-03-08T02:43:15;1021.83;;;941.40;;
72547;SDS011;60570;50.848;6.776;2024-03-08T02:44:17;1022.57;;;941.77;;
72547;SDS011;60570;50.848;6.776;2024-03-08T02:45:21;1021.97;;;941.40;;
72547;SDS011;60570;50.848;6.776;2024-03-08T02:46:22;1027.10;;;947.20;;
72547;SDS011;60570;50.848;6.776;2024-03-08T02:47:24;1022.03;;;941.73;;
72547;SDS011;60570;50.848;6.776;2024-03-08T02:48:26;1018.77;;;938.50;;
72547;SDS011;60570;50.848;6.776;2024-03-08T02:49:28;1020.53;;;940.03;;
72547;SDS011;60570;50.848;6.776;2024-03-08T02:50:28;1021.10;;;940.73;;
72547;SDS011;60570;50.848;6.776;2024-03-08T02:51:31;1020.20;;;939.80;;
72547;SDS011;60570;50.848;6.776;2024-03-08T02:52:35;1019.67;;;939.43;;
72547;SDS011;60570;50.848;6.776;2024-03-08T02:53:36;1025.50;;;944.67;;
72547;SDS011;60570;50.848;6.776;2024-03-08T02:54:38;1023.53;;;942.77;;
72547;SDS011;60570;50.848;6.776;2024-03-08T02:55:38;1022.27;;;941.83;;
72547;SDS011;60570;50.848;6.776;2024-03-08T02:56:41;1025.83;;;944.73;;
72547;SDS011;60570;50.848;6.776;2024-03-08T02:57:41;1026.30;;;945.33;;
72547;SDS011;60570;50.848;6.776;2024-03-08T02:58:43;1020.47;;;939.67;;
72547;SDS011;60570;50.848;6.776;2024-03-08T02:59:48;1021.93;;;941.23;;
72547;SDS011;60570;50.848;6.776;2024-03-08T03:00:50;1019.50;;;939.27;;
72547;SDS011;60570;50.848;6.776;2024-03-08T03:01:51;1019.87;;;939.43;;
72547;SDS011;60570;50.848;6.776;2024-03-08T03:02:52;1018.43;;;938.07;;
72547;SDS011;60570;50.848;6.776;2024-03-08T03:03:54;1021.07;;;940.23;;
72547;SDS011;60570;50.848;6.776;2024-03-08T03:04:55;1021.27;;;940.73;;
72547;SDS011;60570;50.848;6.776;2024-03-08T03:05:56;1022.60;;;941.83;;
72547;SDS011;60570;50.848;6.776;2024-03-08T03:06:59;1020.80;;;940.40;;
72547;SDS011;60570;50.848;6.776;2024-03-08T03:08:00;1022.72;;;942.33;;
72547;SDS011;60570;50.848;6.776;2024-03-08T03:09:04;1024.70;;;943.97;;
72547;SDS011;60570;50.848;6.776;2024-03-08T03:10:06;1017.07;;;937.27;;
72547;SDS011;60570;50.848;6.776;2024-03-08T03:11:09;1020.97;;;940.47;;
72547;SDS011;60570;50.848;6.776;2024-03-08T03:12:09;1027.60;;;947.23;;
72547;SDS011;60570;50.848;6.776;2024-03-08T03:13:11;1016.63;;;936.60;;
72547;SDS011;60570;50.848;6.776;2024-03-08T03:14:12;1022.70;;;942.00;;
72547;SDS011;60570;50.848;6.776;2024-03-08T03:15:13;1025.60;;;944.87;;
72547;SDS011;60570;50.848;6.776;2024-03-08T03:16:16;1026.33;;;945.47;;
72547;SDS011;60570;50.848;6.776;2024-03-08T03:17:19;1024.20;;;943.43;;
72547;SDS011;60570;50.848;6.776;2024-03-08T03:18:21;1021.77;;;941.30;;
72547;SDS011;60570;50.848;6.776;2024-03-08T03:19:23;1020.50;;;940.00;;
72547;SDS011;60570;50.848;6.776;2024-03-08T03:20:25;1025.43;;;944.67;;
72547;SDS011;60570;50.848;6.776;2024-03-08T03:21:28;1019.83;;;939.37;;
72547;SDS011;60570;50.848;6.776;2024-03-08T03:22:33;1021.47;;;940.90;;
72547;SDS011;60570;50.848;6.776;2024-03-08T03:23:35;1021.80;;;941.50;;
72547;SDS011;60570;50.848;6.776;2024-03-08T03:24:37;1021.03;;;940.53;;
72547;SDS011;60570;50.848;6.776;2024-03-08T03:25:38;1019.13;;;938.63;;
72547;SDS011;60570;50.848;6.776;2024-03-08T03:26:41;1021.17;;;941.10;;
72547;SDS011;60570;50.848;6.776;2024-03-08T03:28:46;1017.20;;;938.53;;
72547;SDS011;60570;50.848;6.776;2024-03-08T03:29:48;1018.73;;;939.57;;
72547;SDS011;60570;50.848;6.776;2024-03-08T03:30:52;1017.83;;;938.27;;
72547;SDS011;60570;50.848;6.776;2024-03-08T03:31:53;1020.13;;;939.93;;
72547;SDS011;60570;50.848;6.776;2024-03-08T03:32:54;1016.23;;;936.77;;
72547;SDS011;60570;50.848;6.776;2024-03-08T03:33:57;1020.50;;;940.53;;
72547;SDS011;60570;50.848;6.776;2024-03-08T03:35:02;1014.90;;;935.27;;
72547;SDS011;60570;50.848;6.776;2024-03-08T03:36:05;1021.37;;;941.13;;
72547;SDS011;60570;50.848;6.776;2024-03-08T03:37:08;1013.30;;;933.50;;
72547;SDS011;60570;50.848;6.776;2024-03-08T03:38:13;1016.37;;;936.73;;
72547;SDS011;60570;50.848;6.776;2024-03-08T03:40:17;1013.27;;;935.40;;
72547;SDS011;60570;50.848;6.776;2024-03-08T03:41:19;1019.77;;;941.53;;
72547;SDS011;60570;50.848;6.776;2024-03-08T03:42:20;1017.53;;;938.17;;
72547;SDS011;60570;50.848;6.776;2024-03-08T03:43:21;1024.93;;;945.53;;
72547;SDS011;60570;50.848;6.776;2024-03-08T03:44:22;1023.07;;;943.57;;
72547;SDS011;60570;50.848;6.776;2024-03-08T03:45:24;1018.50;;;938.60;;
72547;SDS011;60570;50.848;6.776;2024-03-08T03:46:25;1021.87;;;941.73;;
72547;SDS011;60570;50.848;6.776;2024-03-08T03:47:27;1023.17;;;943.23;;
72547;SDS011;60570;50.848;6.776;2024-03-08T03:48:28;1025.37;;;945.23;;
72547;SDS011;60570;50.848;6.776;2024-03-08T03:49:29;1019.23;;;939.03;;
72547;SDS011;60570;50.848;6.776;2024-03-08T03:50:30;1025.40;;;945.40;;
72547;SDS011;60570;50.848;6.776;2024-03-08T03:51:34;1019.53;;;939.67;;
72547;SDS011;60570;50.848;6.776;2024-03-08T03:52:35;1021.63;;;941.80;;
72547;SDS011;60570;50.848;6.776;2024-03-08T03:53:38;1022.70;;;942.30;;
72547;SDS011;60570;50.848;6.776;2024-03-08T03:54:38;1021.03;;;940.73;;
72547;SDS011;60570;50.848;6.776;2024-03-08T03:55:40;1021.23;;;940.80;;
72547;SDS011;60570;50.848;6.776;2024-03-08T03:56:41;1020.90;;;940.87;;
72547;SDS011;60570;50.848;6.776;2024-03-08T03:57:42;1019.53;;;939.43;;
72547;SDS011;60570;50.848;6.776;2024-03-08T03:58:45;1018.77;;;938.80;;
72547;SDS011;60570;50.848;6.776;2024-03-08T03:59:46;1025.23;;;944.57;;
72547;SDS011;60570;50.848;6.776;2024-03-08T04:00:48;1024.83;;;945.20;;
72547;SDS011;60570;50.848;6.776;2024-03-08T04:01:49;1022.90;;;942.77;;
72547;SDS011;60570;50.848;6.776;2024-03-08T04:02:50;1018.03;;;937.83;;
72547;SDS011;60570;50.848;6.776;2024-03-08T04:03:51;1020.63;;;940.60;;
72547;SDS011;60570;50.848;6.776;2024-03-08T04:04:53;1022.93;;;942.63;;
72547;SDS011;60570;50.848;6.776;2024-03-08T04:05:54;1019.47;;;939.33;;
72547;SDS011;60570;50.848;6.776;2024-03-08T04:06:56;1020.50;;;940.63;;
72547;SDS011;60570;50.848;6.776;2024-03-08T04:07:58;1027.83;;;948.27;;
72547;SDS011;60570;50.848;6.776;2024-03-08T04:09:01;1022.57;;;942.13;;
72547;SDS011;60570;50.848;6.776;2024-03-08T04:10:01;1020.17;;;940.23;;
72547;SDS011;60570;50.848;6.776;2024-03-08T04:11:03;1024.30;;;943.53;;
72547;SDS011;60570;50.848;6.776;2024-03-08T04:12:05;1021.10;;;940.70;;
72547;SDS011;60570;50.848;6.776;2024-03-08T04:13:05;1020.90;;;940.57;;
72547;SDS011;60570;50.848;6.776;2024-03-08T04:14:07;1021.77;;;941.43;;
72547;SDS011;60570;50.848;6.776;2024-03-08T04:15:08;1029.87;;;948.97;;
72547;SDS011;60570;50.848;6.776;2024-03-08T04:16:11;1021.33;;;940.80;;
72547;SDS011;60570;50.848;6.776;2024-03-08T04:17:12;1020.10;;;939.90;;
72547;SDS011;60570;50.848;6.776;2024-03-08T04:18:13;1019.63;;;939.60;;
72547;SDS011;60570;50.848;6.776;2024-03-08T04:19:16;1017.97;;;937.73;;
72547;SDS011;60570;50.848;6.776;2024-03-08T04:20:20;1020.73;;;940.63;;
72547;SDS011;60570;50.848;6.776;2024-03-08T04:21:21;1021.73;;;941.60;;
72547;SDS011;60570;50.848;6.776;2024-03-08T04:22:23;1023.50;;;943.17;;
72547;SDS011;60570;50.848;6.776;2024-03-08T04:23:23;1024.77;;;945.53;;
72547;SDS011;60570;50.848;6.776;2024-03-08T04:24:26;1016.13;;;936.13;;
72547;SDS011;60570;50.848;6.776;2024-03-08T04:25:27;1017.80;;;937.93;;
72547;SDS011;60570;50.848;6.776;2024-03-08T04:26:29;1018.00;;;938.10;;
72547;SDS011;60570;50.848;6.776;2024-03-08T04:27:30;1020.50;;;940.40;;
72547;SDS011;60570;50.848;6.776;2024-03-08T04:28:32;1019.03;;;939.13;;
72547;SDS011;60570;50.848;6.776;2024-03-08T04:29:33;1021.07;;;940.47;;
72547;SDS011;60570;50.848;6.776;2024-03-08T04:30:37;1023.90;;;944.37;;
72547;SDS011;60570;50.848;6.776;2024-03-08T04:31:38;1026.47;;;945.70;;
72547;SDS011;60570;50.848;6.776;2024-03-08T04:32:39;1020.30;;;940.30;;
72547;SDS011;60570;50.848;6.776;2024-03-08T04:33:41;1017.40;;;937.30;;
72547;SDS011;60570;50.848;6.776;2024-03-08T04:34:44;1017.63;;;937.47;;
72547;SDS011;60570;50.848;6.776;2024-03-08T04:35:45;1022.13;;;941.80;;
72547;SDS011;60570;50.848;6.776;2024-03-08T04:36:47;1026.23;;;945.60;;
72547;SDS011;60570;50.848;6.776;2024-03-08T04:37:48;1020.23;;;940.13;;
72547;SDS011;60570;50.848;6.776;2024-03-08T04:38:49;1024.50;;;944.07;;
72547;SDS011;60570;50.848;6.776;2024-03-08T04:39:52;1020.50;;;940.37;;
72547;SDS011;60570;50.848;6.776;2024-03-08T04:40:54;1017.27;;;937.40;;
72547;SDS011;60570;50.848;6.776;2024-03-08T04:41:55;1020.07;;;940.40;;
72547;SDS011;60570;50.848;6.776;2024-03-08T04:42:59;1019.10;;;939.27;;
72547;SDS011;60570;50.848;6.776;2024-03-08T04:44:00;1018.37;;;938.17;;
72547;SDS011;60570;50.848;6.776;2024-03-08T04:45:01;1020.17;;;940.33;;
72547;SDS011;60570;50.848;6.776;2024-03-08T04:46:06;1020.50;;;940.20;;
72547;SDS011;60570;50.848;6.776;2024-03-08T04:47:06;1017.70;;;937.80;;
72547;SDS011;60570;50.848;6.776;2024-03-08T04:48:08;1020.77;;;940.77;;
72547;SDS011;60570;50.848;6.776;2024-03-08T04:49:09;1021.47;;;941.37;;
72547;SDS011;60570;50.848;6.776;2024-03-08T04:50:11;1020.37;;;940.97;;
72547;SDS011;60570;50.848;6.776;2024-03-08T04:51:12;1017.70;;;938.00;;
72547;SDS011;60570;50.848;6.776;2024-03-08T04:52:14;1015.47;;;936.03;;
72547;SDS011;60570;50.848;6.776;2024-03-08T04:53:15;1014.53;;;934.70;;
72547;SDS011;60570;50.848;6.776;2024-03-08T04:54:18;1012.77;;;933.73;;
72547;SDS011;60570;50.848;6.776;2024-03-08T04:55:20;1016.13;;;936.73;;
72547;SDS011;60570;50.848;6.776;2024-03-08T04:56:23;1018.00;;;938.27;;
72547;SDS011;60570;50.848;6.776;2024-03-08T04:57:23;1020.43;;;941.63;;
72547;SDS011;60570;50.848;6.776;2024-03-08T04:59:26;1008.53;;;931.07;;
72547;SDS011;60570;50.848;6.776;2024-03-08T05:00:28;1016.63;;;937.83;;
72547;SDS011;60570;50.848;6.776;2024-03-08T05:01:28;1012.00;;;933.50;;
72547;SDS011;60570;50.848;6.776;2024-03-08T05:02:30;1018.17;;;938.70;;
72547;SDS011;60570;50.848;6.776;2024-03-08T05:03:31;1015.77;;;936.57;;
72547;SDS011;60570;50.848;6.776;2024-03-08T05:04:32;1014.10;;;934.97;;
72547;SDS011;60570;50.848;6.776;2024-03-08T05:05:36;1017.30;;;937.93;;
72547;SDS011;60570;50.848;6.776;2024-03-08T05:06:37;1020.63;;;941.00;;
72547;SDS011;60570;50.848;6.776;2024-03-08T05:07:39;1017.03;;;937.63;;
72547;SDS011;60570;50.848;6.776;2024-03-08T05:08:40;1018.90;;;940.23;;
72547;SDS011;60570;50.848;6.776;2024-03-08T05:09:41;1015.33;;;936.17;;
72547;SDS011;60570;50.848;6.776;2024-03-08T05:10:44;1016.73;;;937.00;;
72547;SDS011;60570;50.848;6.776;2024-03-08T05:11:46;1014.33;;;934.80;;
72547;SDS011;60570;50.848;6.776;2024-03-08T05:12:48;1016.63;;;936.93;;
72547;SDS011;60570;50.848;6.776;2024-03-08T05:13:49;1019.10;;;939.30;;
72547;SDS011;60570;50.848;6.776;2024-03-08T05:14:50;1017.07;;;937.17;;
72547;SDS011;60570;50.848;6.776;2024-03-08T05:15:52;1014.17;;;935.00;;
72547;SDS011;60570;50.848;6.776;2024-03-08T05:16:52;1016.17;;;936.57;;
72547;SDS011;60570;50.848;6.776;2024-03-08T05:17:54;1021.33;;;942.50;;
72547;SDS011;60570;50.848;6.776;2024-03-08T05:18:56;1017.50;;;937.73;;
72547;SDS011;60570;50.848;6.776;2024-03-08T05:19:58;1016.30;;;937.27;;
72547;SDS011;60570;50.848;6.776;2024-03-08T05:20:58;1016.27;;;936.83;;
72547;SDS011;60570;50.848;6.776;2024-03-08T05:22:00;1016.97;;;937.43;;
72547;SDS011;60570;50.848;6.776;2024-03-08T05:23:01;1015.40;;;936.07;;
72547;SDS011;60570;50.848;6.776;2024-03-08T05:24:03;1017.20;;;937.87;;
72547;SDS011;60570;50.848;6.776;2024-03-08T05:25:05;1013.33;;;933.73;;
72547;SDS011;60570;50.848;6.776;2024-03-08T05:26:10;1013.20;;;933.57;;
72547;SDS011;60570;50.848;6.776;2024-03-08T05:27:10;1014.57;;;935.07;;
72547;SDS011;60570;50.848;6.776;2024-03-08T05:28:13;1015.27;;;935.97;;
72547;SDS011;60570;50.848;6.776;2024-03-08T05:29:13;1014.63;;;934.87;;
72547;SDS011;60570;50.848;6.776;2024-03-08T05:30:15;1017.70;;;937.80;;
72547;SDS011;60570;50.848;6.776;2024-03-08T05:31:18;1017.93;;;938.03;;
72547;SDS011;60570;50.848;6.776;2024-03-08T05:32:22;1015.40;;;936.07;;
72547;SDS011;60570;50.848;6.776;2024-03-08T05:33:23;1020.17;;;941.53;;
72547;SDS011;60570;50.848;6.776;2024-03-08T05:34:24;1018.07;;;937.93;;
72547;SDS011;60570;50.848;6.776;2024-03-08T05:35:26;1018.00;;;938.33;;
72547;SDS011;60570;50.848;6.776;2024-03-08T05:36:27;1015.50;;;935.70;;
72547;SDS011;60570;50.848;6.776;2024-03-08T05:37:28;1016.97;;;937.00;;
72547;SDS011;60570;50.848;6.776;2024-03-08T05:38:31;1016.50;;;936.70;;
72547;SDS011;60570;50.848;6.776;2024-03-08T05:39:34;1017.57;;;938.10;;
72547;SDS011;60570;50.848;6.776;2024-03-08T05:40:34;1018.27;;;938.57;;
72547;SDS011;60570;50.848;6.776;2024-03-08T05:41:37;1019.50;;;939.30;;
72547;SDS011;60570;50.848;6.776;2024-03-08T05:43:40;1010.90;;;933.30;;
72547;SDS011;60570;50.848;6.776;2024-03-08T05:44:42;1017.20;;;938.43;;
72547;SDS011;60570;50.848;6.776;2024-03-08T05:45:43;1015.70;;;936.60;;
72547;SDS011;60570;50.848;6.776;2024-03-08T05:46:44;1012.73;;;933.87;;
72547;SDS011;60570;50.848;6.776;2024-03-08T05:47:46;1013.97;;;935.07;;
72547;SDS011;60570;50.848;6.776;2024-03-08T05:48:47;1014.27;;;935.03;;
72547;SDS011;60570;50.848;6.776;2024-03-08T05:49:49;1016.37;;;937.00;;
72547;SDS011;60570;50.848;6.776;2024-03-08T05:50:50;1015.00;;;935.60;;
72547;SDS011;60570;50.848;6.776;2024-03-08T05:51:51;1013.30;;;934.27;;
72547;SDS011;60570;50.848;6.776;2024-03-08T05:52:54;1007.23;;;928.53;;